Time;durP1;ratioP1;P1;durP2;ratioP2;P2;SDS_P1;SDS_P2;PMS_P1;PMS_P2;Temp;Humidity;BMP_temperature;BMP_pressure;BME280_temperature;BME280_humidity;BME280_pressure;Samples;Min_cycle;Max_cycle;Signal;HPM_P1;HPM_P2
2023/09/30 00:00:37;;;;;;;;;;;;;;;16.10;nan;101146.81;5057989;28;19917;-84
2023/09/30 00:03:03;;;;;;;;;;;;;;;16.09;nan;101150.50;5038360;28;19917;-84
2023/09/30 00:05:28;;;;;;;;;;;;;;;16.06;nan;101140.16;5058029;28;19963;-84
2023/09/30 00:07:53;;;;;;;;;;;;;;;16.05;nan;101154.50;5036278;28;19965;-84
2023/09/30 00:10:19;;;;;;;;;;;;;;;16.04;nan;101142.19;5041270;28;19968;-84
2023/09/30 00:12:45;;;;;;;;;;;;;;;16.04;nan;101157.31;5058085;28;19975;-84
2023/09/30 00:15:10;;;;;;;;;;;;;;;15.99;nan;101154.34;5057957;28;20283;-84
2023/09/30 00:17:35;;;;;;;;;;;;;;;15.91;nan;101147.22;5037851;28;19966;-84
2023/09/30 00:20:00;;;;;;;;;;;;;;;15.84;nan;101156.91;5039895;28;19925;-84
2023/09/30 00:22:26;;;;;;;;;;;;;;;;;;5050138;28;19921;-84
2023/09/30 00:24:51;;;;;;;;;;;;;;;15.68;nan;101158.59;5034640;28;19927;-84
2023/09/30 00:27:16;;;;;;;;;;;;;;;15.61;nan;101168.25;5038546;28;20390;-84
2023/09/30 00:29:41;;;;;;;;;;;;;;;15.55;nan;101168.94;5035711;28;20302;-84
2023/09/30 00:32:06;;;;;;;;;;;;;;;15.50;nan;101171.28;5051210;28;19932;-84
2023/09/30 00:34:33;;;;;;;;;;;;;;;15.47;nan;101171.63;5035933;28;19928;-84
2023/09/30 00:36:58;;;;;;;;;;;;;;;15.44;nan;101172.75;5052372;28;19921;-84
2023/09/30 00:39:26;;;;;;;;;;;;;;;15.41;nan;101175.75;5042814;28;19924;-84
2023/09/30 00:41:51;;;;;;;;;;;;;;;15.38;nan;101178.78;5030982;28;19917;-84
2023/09/30 00:44:16;;;;;;;;;;;;;;;15.34;nan;101176.59;5036747;28;19940;-84
2023/09/30 00:46:42;;;;;;;;;;;;;;;;;;5038487;28;20396;-84
2023/09/30 00:49:08;;;;;;;;;;;;;;;;;;5052477;28;19928;-85
2023/09/30 00:51:33;;;;;;;;;;;;;;;;;;5054722;28;19916;-85
2023/09/30 00:53:58;;;;;;;;;;;;;;;;;;5054477;28;20290;-84
2023/09/30 00:56:23;;;;;;;;;;;;;;;;;;5052040;28;20004;-84
2023/09/30 00:58:51;;;;;;;;;;;;;;;15.30;nan;101186.75;5052289;28;19925;-84
2023/09/30 01:01:16;;;;;;;;;;;;;;;15.32;nan;101178.59;5035813;28;20033;-84
2023/09/30 01:03:41;;;;;;;;;;;;;;;;;;5035527;28;20022;-84
2023/09/30 01:06:07;;;;;;;;;;;;;;;15.39;nan;101184.94;5050117;28;19938;-85
2023/09/30 01:08:34;;;;;;;;;;;;;;;;;;5052935;28;20402;-84
2023/09/30 01:10:59;;;;;;;;;;;;;;;;;;5037600;28;19924;-84
2023/09/30 01:13:31;;;;;;;;;;;;;;;15.41;nan;101172.28;5055793;28;20060;-85
2023/09/30 01:15:56;;;;;;;;;;;;;;;;;;5038022;28;19920;-87
2023/09/30 01:18:21;;;;;;;;;;;;;;;;;;5053354;28;19931;-85
2023/09/30 01:20:46;;;;;;;;;;;;;;;15.40;nan;101181.28;5031317;28;19916;-86
2023/09/30 01:23:12;;;;;;;;;;;;;;;15.41;nan;101194.41;5051017;28;19917;-86
2023/09/30 01:25:38;;;;;;;;;;;;;;;15.41;nan;101173.09;5035914;28;19924;-86
2023/09/30 01:28:07;;;;;;;;;;;;;;;15.41;nan;101181.09;5036178;28;19917;-86
2023/09/30 01:30:33;;;;;;;;;;;;;;;15.43;nan;101165.78;5051343;28;20011;-87
2023/09/30 01:32:58;;;;;;;;;;;;;;;;;;5028528;28;19988;-84
2023/09/30 01:35:23;;;;;;;;;;;;;;;15.57;nan;101182.09;5034130;28;20000;-84
2023/09/30 01:37:48;;;;;;;;;;;;;;;;;;5054011;28;19936;-84
2023/09/30 01:40:14;;;;;;;;;;;;;;;15.68;nan;101195.91;5051940;28;19944;-84
2023/09/30 01:42:39;;;;;;;;;;;;;;;15.73;nan;101203.44;5020923;28;20477;-84
2023/09/30 01:45:05;;;;;;;;;;;;;;;15.79;nan;101191.25;5039423;28;19951;-84
2023/09/30 01:47:30;;;;;;;;;;;;;;;15.85;nan;101186.06;5032432;28;19924;-84
2023/09/30 01:49:55;;;;;;;;;;;;;;;15.90;nan;101201.56;5035456;28;19971;-84
2023/09/30 01:52:20;;;;;;;;;;;;;;;15.93;nan;101194.03;5035593;28;20362;-84
2023/09/30 01:54:45;;;;;;;;;;;;;;;15.98;nan;101196.19;5055763;28;19917;-84
2023/09/30 01:57:11;;;;;;;;;;;;;;;16.00;nan;101194.19;5055238;28;19925;-84
2023/09/30 01:59:36;;;;;;;;;;;;;;;16.01;nan;101211.03;5059320;28;19917;-84
2023/09/30 02:02:01;;;;;;;;;;;;;;;16.03;nan;101214.38;5029672;28;19916;-85
2023/09/30 02:04:26;;;;;;;;;;;;;;;16.06;nan;101198.00;5037248;28;19920;-85
2023/09/30 02:06:52;;;;;;;;;;;;;;;16.07;nan;101199.69;5030622;28;19917;-84
2023/09/30 02:09:17;;;;;;;;;;;;;;;16.08;nan;101196.84;5036331;28;20478;-85
2023/09/30 02:11:43;;;;;;;;;;;;;;;16.12;nan;101206.16;5035028;28;19917;-85
2023/09/30 02:14:11;;;;;;;;;;;;;;;16.10;nan;101210.00;5053854;28;19916;-86
2023/09/30 02:16:36;;;;;;;;;;;;;;;;;;5036708;28;19923;-85
2023/09/30 02:19:02;;;;;;;;;;;;;;;16.00;nan;101202.22;5036292;28;19986;-86
2023/09/30 02:21:28;;;;;;;;;;;;;;;;;;5037360;28;19931;-86
2023/09/30 02:23:54;;;;;;;;;;;;;;;;;;5034882;28;19924;-86
2023/09/30 02:26:20;;;;;;;;;;;;;;;15.88;nan;101204.41;5033536;28;19912;-86
2023/09/30 02:28:45;;;;;;;;;;;;;;;15.83;nan;101213.91;5052311;28;19923;-85
2023/09/30 02:31:10;;;;;;;;;;;;;;;15.81;nan;101198.06;5054259;28;20378;-85
2023/09/30 02:33:37;;;;;;;;;;;;;;;15.84;nan;101210.25;5055837;28;20442;-85
2023/09/30 02:36:05;;;;;;;;;;;;;;;15.83;nan;101219.25;5038533;28;19978;-86
2023/09/30 02:38:30;;;;;;;;;;;;;;;;;;5055641;28;20011;-85
2023/09/30 02:40:56;;;;;;;;;;;;;;;;;;5055507;28;19944;-84
2023/09/30 02:43:21;;;;;;;;;;;;;;;;;;5037519;28;19924;-85
2023/09/30 02:45:46;;;;;;;;;;;;;;;15.65;nan;101212.22;5032217;28;19916;-83
2023/09/30 02:48:11;;;;;;;;;;;;;;;15.57;nan;101224.75;5050165;28;20100;-84
2023/09/30 02:50:37;;;;;;;;;;;;;;;15.49;nan;101213.09;5032786;28;19920;-84
2023/09/30 02:53:02;;;;;;;;;;;;;;;;;;5050148;28;19924;-85
2023/09/30 02:55:27;;;;;;;;;;;;;;;15.41;nan;101220.25;5051542;28;20625;-84
2023/09/30 02:57:52;;;;;;;;;;;;;;;15.37;nan;101216.22;5051717;28;19916;-84
2023/09/30 03:00:23;;;;;;;;;;;;;;;;;;5045063;28;20362;-84
2023/09/30 03:02:49;;;;;;;;;;;;;;;15.23;nan;101223.91;5032232;28;19921;-83
2023/09/30 03:05:15;;;;;;;;;;;;;;;;;;5055461;28;20175;-83
2023/09/30 03:07:41;;;;;;;;;;;;;;;15.11;nan;101230.56;5053399;28;19917;-83
2023/09/30 03:10:08;;;;;;;;;;;;;;;;;;5035084;28;19924;-83
2023/09/30 03:12:33;;;;;;;;;;;;;;;14.99;nan;101231.84;5035349;28;19928;-84
2023/09/30 03:14:58;;;;;;;;;;;;;;;14.91;nan;101234.50;5032087;28;19917;-83
2023/09/30 03:17:25;;;;;;;;;;;;;;;;;;5052439;28;20338;-84
2023/09/30 03:19:50;;;;;;;;;;;;;;;;;;5052793;28;19923;-84
2023/09/30 03:22:15;;;;;;;;;;;;;;;;;;5031176;28;19924;-84
2023/09/30 03:24:41;;;;;;;;;;;;;;;;;;5038447;28;19925;-84
2023/09/30 03:27:07;;;;;;;;;;;;;;;;;;5035686;28;19924;-84
2023/09/30 03:29:32;;;;;;;;;;;;;;;;;;5034065;28;19916;-84
2023/09/30 03:31:57;;;;;;;;;;;;;;;;;;5055223;28;19936;-84
2023/09/30 03:34:22;;;;;;;;;;;;;;;;;;5037004;28;20019;-84
2023/09/30 03:36:47;;;;;;;;;;;;;;;;;;5037260;28;19920;-84
2023/09/30 03:39:15;;;;;;;;;;;;;;;;;;5040560;28;19917;-84
2023/09/30 03:41:40;;;;;;;;;;;;;;;;;;5057100;28;19916;-84
2023/09/30 03:44:06;;;;;;;;;;;;;;;;;;5053557;28;19928;-84
2023/09/30 03:46:31;;;;;;;;;;;;;;;;;;5053257;28;19943;-84
2023/09/30 03:48:56;;;;;;;;;;;;;;;;;;5035185;28;19925;-84
2023/09/30 03:51:25;;;;;;;;;;;;;;;;;;5034829;28;19970;-84
2023/09/30 03:53:50;;;;;;;;;;;;;;;;;;5034016;28;19920;-84
2023/09/30 03:56:15;;;;;;;;;;;;;;;;;;5053161;28;19943;-84
2023/09/30 03:58:41;;;;;;;;;;;;;;;;;;5035014;28;19917;-84
2023/09/30 04:01:06;;;;;;;;;;;;;;;;;;5034792;28;19924;-85
2023/09/30 04:03:39;;;;;;;;;;;;;;;;;;5033604;28;19948;-85
2023/09/30 04:06:04;;;;;;;;;;;;;;;;;;5050175;28;19924;-84
2023/09/30 04:08:29;;;;;;;;;;;;;;;;;;5049807;28;19920;-85
2023/09/30 04:10:54;;;;;;;;;;;;;;;;;;5051304;28;20415;-85
2023/09/30 04:13:21;;;;;;;;;;;;;;;;;;5053384;28;20392;-84
2023/09/30 04:15:46;;;;;;;;;;;;;;;;;;5033017;28;20396;-84
2023/09/30 04:18:11;;;;;;;;;;;;;;;14.29;nan;101240.06;5030434;28;19917;-84
2023/09/30 04:20:39;;;;;;;;;;;;;;;;;;5035559;28;19920;-84
2023/09/30 04:23:05;;;;;;;;;;;;;;;;;;5035967;28;19955;-84
2023/09/30 04:25:30;;;;;;;;;;;;;;;;;;5035348;28;20385;-84
2023/09/30 04:27:55;;;;;;;;;;;;;;;;;;5052941;28;20370;-84
2023/09/30 04:30:22;;;;;;;;;;;;;;;;;;5035242;28;19932;-84
2023/09/30 04:32:47;;;;;;;;;;;;;;;;;;5034001;28;20005;-84
2023/09/30 04:35:12;;;;;;;;;;;;;;;;;;5042882;28;19984;-84
2023/09/30 04:37:37;;;;;;;;;;;;;;;;;;5038628;28;19926;-84
2023/09/30 04:40:07;;;;;;;;;;;;;;;;;;5038635;28;20027;-84
2023/09/30 04:42:34;;;;;;;;;;;;;;;;;;5055235;28;19917;-84
2023/09/30 04:44:59;;;;;;;;;;;;;;;;;;5029278;28;19920;-85
2023/09/30 04:47:25;;;;;;;;;;;;;;;;;;5041147;28;20254;-86
2023/09/30 04:49:51;;;;;;;;;;;;;;;;;;5041887;28;19917;-84
2023/09/30 04:52:16;;;;;;;;;;;;;;;;;;5057897;28;19920;-85
2023/09/30 04:54:41;;;;;;;;;;;;;;;14.71;nan;101263.22;5041608;28;20282;-84
2023/09/30 04:57:06;;;;;;;;;;;;;;;;;;5035295;28;19921;-85
2023/09/30 04:59:32;;;;;;;;;;;;;;;;;;5039674;28;19917;-84
2023/09/30 05:01:57;;;;;;;;;;;;;;;;;;5057054;28;19931;-85
2023/09/30 05:04:23;;;;;;;;;;;;;;;;;;5039772;28;20159;-84
2023/09/30 05:06:49;;;;;;;;;;;;;;;;;;5037537;28;19917;-84
2023/09/30 05:09:14;;;;;;;;;;;;;;;;;;5047562;28;19960;-84
2023/09/30 05:11:39;;;;;;;;;;;;;;;;;;5056670;28;19920;-84
2023/09/30 05:14:05;;;;;;;;;;;;;;;;;;5032348;28;19919;-84
2023/09/30 05:16:30;;;;;;;;;;;;;;;;;;5050427;28;20000;-84
2023/09/30 05:18:55;;;;;;;;;;;;;;;;;;5057093;28;19980;-84
2023/09/30 05:21:21;;;;;;;;;;;;;;;;;;5035741;28;19924;-85
2023/09/30 05:23:46;;;;;;;;;;;;;;;;;;5038423;28;19928;-84
2023/09/30 05:26:11;;;;;;;;;;;;;;;;;;5037290;28;20001;-84
2023/09/30 05:28:36;;;;;;;;;;;;;;;;;;5036607;28;20051;-84
2023/09/30 05:31:02;;;;;;;;;;;;;;;;;;5036578;28;20429;-83
2023/09/30 05:33:28;;;;;;;;;;;;;;;;;;5054253;28;19931;-83
2023/09/30 05:35:54;;;;;;;;;;;;;;;;;;5055458;28;20027;-83
2023/09/30 05:38:20;;;;;;;;;;;;;;;;;;5046411;28;20011;-83
2023/09/30 05:40:45;;;;;;;;;;;;;;;;;;5035045;28;19971;-83
2023/09/30 05:43:13;;;;;;;;;;;;;;;;;;5030157;28;19917;-84
2023/09/30 05:45:40;;;;;;;;;;;;;;;;;;5051664;28;19980;-84
2023/09/30 05:48:06;;;;;;;;;;;;;;;14.60;nan;101302.44;5031281;28;20386;-84
2023/09/30 05:50:31;;;;;;;;;;;;;;;;;;5034875;28;19917;-83
2023/09/30 05:52:56;;;;;;;;;;;;;;;;;;5030282;28;19927;-83
2023/09/30 05:55:22;;;;;;;;;;;;;;;;;;5051835;28;19917;-84
2023/09/30 05:57:48;;;;;;;;;;;;;;;;;;5052386;28;19931;-83
2023/09/30 06:00:30;;;;;;;;;;;;;;;;;;5051778;28;20046;-85
2023/09/30 06:02:55;;;;;;;;;;;;;;;;;;5049543;28;19917;-84
2023/09/30 06:05:22;;;;;;;;;;;;;;;;;;5044173;28;19936;-84
2023/09/30 06:07:47;;;;;;;;;;;;;;;;;;5052222;28;19917;-86
2023/09/30 06:10:12;;;;;;;;;;;;;;;;;;5051668;28;19924;-84
2023/09/30 06:12:37;;;;;;;;;;;;;;;;;;5051080;28;19920;-85
2023/09/30 06:15:02;;;;;;;;;;;;;;;;;;5032580;28;19927;-86
2023/09/30 06:17:28;;;;;;;;;;;;;;;;;;5047704;28;20002;-86
2023/09/30 06:19:53;;;;;;;;;;;;;;;;;;5033519;28;19928;-86
2023/09/30 06:22:18;;;;;;;;;;;;;;;;;;5035879;28;20159;-84
2023/09/30 06:24:43;;;;;;;;;;;;;;;14.98;nan;101321.56;5037420;28;19916;-84
2023/09/30 06:27:13;;;;;;;;;;;;;;;;;;5047225;28;19917;-85
2023/09/30 06:29:38;;;;;;;;;;;;;;;;;;5056205;28;19921;-85
2023/09/30 06:32:03;;;;;;;;;;;;;;;;;;5056878;28;19927;-85
2023/09/30 06:34:28;;;;;;;;;;;;;;;;;;5041062;28;19963;-85
2023/09/30 06:36:54;;;;;;;;;;;;;;;15.98;nan;101318.09;5041868;28;19947;-86
2023/09/30 06:39:19;;;;;;;;;;;;;;;16.06;nan;101334.91;5050453;28;19916;-84
2023/09/30 06:41:46;;;;;;;;;;;;;;;16.13;nan;101332.41;5042607;28;19920;-85
2023/09/30 06:44:12;;;;;;;;;;;;;;;16.19;nan;101341.59;5038585;28;20007;-84
2023/09/30 06:46:37;;;;;;;;;;;;;;;;;;5036382;28;19925;-84
2023/09/30 06:49:03;;;;;;;;;;;;;;;;;;5038918;28;19917;-85
2023/09/30 06:51:28;;;;;;;;;;;;;;;16.38;nan;101345.72;5036639;28;19991;-85
2023/09/30 06:53:54;;;;;;;;;;;;;;;16.72;nan;101364.16;5056485;28;20895;-86
2023/09/30 06:56:19;;;;;;;;;;;;;;;;;;5035979;28;19923;-86
2023/09/30 06:58:44;;;;;;;;;;;;;;;17.19;nan;101363.34;5054474;28;19927;-86
2023/09/30 07:01:14;;;;;;;;;;;;;;;17.24;nan;101362.81;5036428;28;20366;-87
2023/09/30 07:03:39;;;;;;;;;;;;;;;17.28;nan;101372.13;5054902;28;19924;-86
2023/09/30 07:06:05;;;;;;;;;;;;;;;17.25;nan;101353.78;5053619;28;19913;-87
2023/09/30 07:08:30;;;;;;;;;;;;;;;17.19;nan;101361.50;5031843;28;19952;-86
2023/09/30 07:10:56;;;;;;;;;;;;;;;17.16;nan;101367.19;5035139;28;20439;-87
2023/09/30 07:13:21;;;;;;;;;;;;;;;17.09;nan;101376.06;5028370;28;19975;-86
2023/09/30 07:15:46;;;;;;;;;;;;;;;17.10;nan;101367.88;5030088;28;19920;-86
2023/09/30 07:18:12;;;;;;;;;;;;;;;17.12;nan;101373.06;5046672;28;19913;-87
2023/09/30 07:20:37;;;;;;;;;;;;;;;17.08;nan;101391.25;5045082;28;19913;-86
2023/09/30 07:23:03;;;;;;;;;;;;;;;17.11;nan;101390.94;5036706;28;19916;-85
2023/09/30 07:25:31;;;;;;;;;;;;;;;17.09;nan;101403.63;5024847;28;19917;-87
2023/09/30 07:27:57;;;;;;;;;;;;;;;17.12;nan;101413.16;5029459;28;19921;-86
2023/09/30 07:30:22;;;;;;;;;;;;;;;17.09;nan;101408.97;5045837;28;19932;-85
2023/09/30 07:32:47;;;;;;;;;;;;;;;17.16;nan;101396.59;5027192;28;20295;-85
2023/09/30 07:35:15;;;;;;;;;;;;;;;17.28;nan;101406.88;5047674;28;20354;-86
2023/09/30 07:37:41;;;;;;;;;;;;;;;17.44;nan;101392.59;5036497;28;19919;-86
2023/09/30 07:40:06;;;;;;;;;;;;;;;17.55;nan;101386.88;5042033;28;20020;-87
2023/09/30 07:42:33;;;;;;;;;;;;;;;17.65;nan;101390.13;5047537;28;19978;-88
2023/09/30 07:44:58;;;;;;;;;;;;;;;17.63;nan;101402.84;5040213;28;19944;-87
2023/09/30 07:47:23;;;;;;;;;;;;;;;17.86;nan;101404.75;5045723;28;19913;-88
2023/09/30 07:49:48;;;;;;;;;;;;;;;18.21;nan;101395.25;5041008;28;19948;-87
2023/09/30 07:52:14;;;;;;;;;;;;;;;18.56;nan;101406.31;5037890;28;20312;-88
2023/09/30 07:54:39;;;;;;;0.10;0.10;;;;;;;;;;5050312;28;19917;-88
2023/09/30 07:57:04;;;;;;;0.10;0.10;;;;;;;19.35;nan;101416.50;5025655;28;20409;-87
2023/09/30 07:59:30;;;;;;;;;;;;;;;19.82;nan;101429.44;5023731;28;20061;-87
2023/09/30 08:01:57;;;;;;;;;;;;;;;20.15;nan;101447.72;5034107;28;19912;-85
2023/09/30 08:04:22;;;;;;;;;;;;;;;20.63;nan;101431.00;5043622;28;20093;-85
2023/09/30 08:06:52;;;;;;;;;;;;;;;20.82;nan;101443.75;5038780;28;19956;-85
2023/09/30 08:09:18;;;;;;;;;;;;;;;21.16;nan;101426.75;5036653;28;19925;-85
2023/09/30 08:11:44;;;;;;;0.10;0.10;;;;;;;21.36;nan;101432.22;5052122;28;19916;-86
2023/09/30 08:14:09;;;;;;;;;;;;;;;21.46;nan;101428.38;5038084;28;20033;-85
2023/09/30 08:16:35;;;;;;;;;;;;;;;21.47;nan;101443.47;5039047;28;19999;-85
2023/09/30 08:19:01;;;;;;;0.10;0.10;;;;;;;;;;5034722;28;19975;-86
2023/09/30 08:21:26;;;;;;;0.00;0.00;;;;;;;;;;5034235;28;20487;-85
2023/09/30 08:23:51;;;;;;;;;;;;;;;22.13;nan;101448.19;5036728;28;20033;-86
2023/09/30 08:26:16;;;;;;;;;;;;;;;22.29;nan;101450.50;5031773;28;19936;-86
2023/09/30 08:28:41;;;;;;;;;;;;;;;22.36;nan;101453.22;5046784;28;19916;-85
2023/09/30 08:31:09;;;;;;;;;;;;;;;22.77;nan;101444.06;5045747;28;19921;-86
2023/09/30 08:33:35;;;;;;;0.00;0.00;;;;;;;-145.28;100.00;154384.53;5041569;28;19921;-87
2023/09/30 08:36:06;;;;;;;0.00;0.00;;;;;;;;;;5047635;28;20411;-85
2023/09/30 08:38:31;;;;;;;0.00;0.00;;;;;;;;;;5028997;28;20421;-85
2023/09/30 08:40:57;;;;;;;0.00;0.00;;;;;;;;;;5051907;28;20497;-85
2023/09/30 08:43:25;;;;;;;;;;;;;;;25.41;nan;101490.38;5050644;28;20037;-85
2023/09/30 08:45:53;;;;;;;;;;;;;;;25.54;nan;101487.47;5052686;28;19916;-85
2023/09/30 08:48:19;;;;;;;;;;;;;;;25.83;nan;101479.59;5024476;28;19917;-85
2023/09/30 08:50:45;;;;;;;;;;;;;;;25.90;nan;101480.34;5037478;28;19908;-85
2023/09/30 08:53:11;;;;;;;;;;;;;;;26.28;nan;101490.00;5055693;28;20401;-83
2023/09/30 08:55:37;;;;;;;;;;;;;;;26.55;nan;101508.56;5040041;28;19917;-83
2023/09/30 08:58:03;;;;;;;;;;;;;;;26.74;nan;101507.41;5043866;28;19912;-86
2023/09/30 09:00:28;;;;;;;;;;;;;;;26.94;nan;101501.63;5030380;28;20000;-85
2023/09/30 09:02:53;;;;;;;;;;;;;;;26.83;nan;101494.31;5035336;28;20174;-85
2023/09/30 09:05:18;;;;;;;;;;;;;;;27.15;nan;101491.22;5054751;28;19986;-83
2023/09/30 09:07:44;;;;;;;;;;;;;;;26.81;nan;101501.88;5048661;28;19913;-83
2023/09/30 09:10:15;;;;;;;;;;;;;;;26.87;nan;101503.66;5028499;28;19984;-84
2023/09/30 09:12:40;;;;;;;;;;;;;;;26.85;nan;101493.00;5042503;28;19924;-83
2023/09/30 09:15:06;;;;;;;;;;;;;;;26.81;nan;101499.16;5054303;28;19970;-84
2023/09/30 09:17:42;;;;;;;;;;;;;;;27.23;nan;101499.03;5044304;28;19920;-84
2023/09/30 09:20:09;;;;;;;;;;;;;;;27.90;nan;101509.34;5037183;28;19966;-85
2023/09/30 09:22:44;;;;;;;;;;;;;;;28.65;nan;101501.91;5055456;28;19916;-85
2023/09/30 09:25:10;;;;;;;;;;;;;;;28.44;nan;101498.88;5038401;28;19924;-86
2023/09/30 09:27:36;;;;;;;;;;;;;;;28.10;nan;101498.00;5029534;28;20359;-86
2023/09/30 09:30:19;;;;;;;;;;;;;;;28.43;nan;101485.50;5030556;28;19921;-87
2023/09/30 09:32:57;;;;;;;;;;;;;;;28.93;nan;101518.13;5050962;28;20011;-85
2023/09/30 09:35:25;;;;;;;;;;;;;;;28.41;nan;101509.41;5035175;28;20082;-85
2023/09/30 09:38:06;;;;;;;;;;;;;;;28.43;nan;101497.19;5042615;28;20001;-86
2023/09/30 09:40:32;;;;;;;;;;;;;;;28.35;nan;101484.03;5050839;28;19917;-85
2023/09/30 09:43:04;;;;;;;;;;;;;;;28.18;nan;101505.78;5032840;28;19940;-85
2023/09/30 09:45:32;;;;;;;;;;;;;;;28.10;nan;101496.13;5033857;28;20015;-84
2023/09/30 09:47:57;;;;;;;;;;;;;;;28.33;nan;101502.47;5033513;28;20018;-84
2023/09/30 09:50:23;;;;;;;;;;;;;;;28.68;nan;101510.44;5049452;28;19990;-85
2023/09/30 09:52:52;;;;;;;;;;;;;;;29.27;nan;101504.47;5035012;28;19921;-85
2023/09/30 09:55:18;;;;;;;;;;;;;;;29.29;nan;101504.19;5050998;28;20030;-85
2023/09/30 09:57:44;;;;;;;;;;;;;;;28.11;nan;101511.38;5047937;28;20325;-85
2023/09/30 10:00:15;;;;;;;;;;;;;;;27.98;nan;101506.22;5033759;28;19917;-86
2023/09/30 10:02:41;;;;;;;;;;;;;;;28.84;nan;101503.31;5038644;28;19917;-86
2023/09/30 10:05:07;;;;;;;;;;;;;;;29.53;nan;101510.22;5048556;28;19928;-86
2023/09/30 10:07:44;;;;;;;;;;;;;;;29.36;nan;101505.66;5053688;28;20011;-85
2023/09/30 10:10:13;;;;;;;;;;;;;;;29.48;nan;101512.88;5036072;28;19917;-85
2023/09/30 10:12:39;;;;;;;;;;;;;;;29.67;nan;101495.13;5049461;28;20306;-86
2023/09/30 10:15:23;;;;;;;;;;;;;;;29.91;nan;101490.19;5041438;28;19924;-86
2023/09/30 10:17:58;;;;;;;;;;;;;;;30.18;nan;101494.84;5053995;28;19917;-86
2023/09/30 10:20:27;;;;;;;;;;;;;;;30.54;nan;101492.41;5029457;28;19919;-86
2023/09/30 10:23:12;;;;;;;;;;;;;;;30.90;nan;101474.38;5037255;28;19916;-85
2023/09/30 10:25:39;;;;;;;;;;;;;;;30.23;nan;101475.78;5040488;28;19956;-84
2023/09/30 10:28:24;;;;;;;;;;;;;;;28.63;nan;101468.69;5034740;28;19917;-87
2023/09/30 10:31:10;;;;;;;;;;;;;;;28.85;nan;101477.72;5030291;28;19916;-89
2023/09/30 10:33:35;;;;;;;;;;;;;;;28.65;nan;101472.84;5045485;28;19959;-87
2023/09/30 10:36:03;;;;;;;;;;;;;;;27.45;nan;101469.31;5054663;28;19917;-85
2023/09/30 10:38:34;;;;;;;;;;;;;;;27.48;nan;101463.41;5047538;28;20360;-85
2023/09/30 10:41:01;;;;;;;;;;;;;;;28.43;nan;101458.28;5035538;28;19923;-85
2023/09/30 10:43:33;;;;;;;;;;;;;;;29.31;nan;101453.81;5031451;28;19916;-88
2023/09/30 10:46:17;;;;;;;;;;;;;;;30.30;nan;101459.22;5034817;28;19916;-86
2023/09/30 10:48:43;;;;;;;;;;;;;;;31.56;nan;101460.16;5051618;28;19997;-85
2023/09/30 10:51:21;;;;;;;;;;;;;;;32.35;nan;101467.06;5038577;28;19952;-84
2023/09/30 10:53:56;;;;;;;;;;;;;;;32.38;nan;101461.03;5049449;28;19923;-85
2023/09/30 10:56:22;;;;;;;;;;;;;;;32.70;nan;101456.34;5037965;28;20408;-85
2023/09/30 10:58:48;;;;;;;;;;;;;;;31.91;nan;101462.09;5037681;28;19916;-85
2023/09/30 11:01:15;;;;;;;;;;;;;;;31.23;nan;101450.47;5042639;28;19920;-84
2023/09/30 11:03:41;;;;;;;;;;;;;;;31.42;nan;101453.56;5036297;28;19952;-85
2023/09/30 11:06:06;;;;;;;;;;;;;;;31.40;nan;101461.22;5012418;28;20345;-88
2023/09/30 11:08:32;;;;;;;;;;;;;;;30.49;nan;101460.44;5017060;28;19919;-84
2023/09/30 11:10:57;;;;;;;;;;;;;;;30.24;nan;101444.66;5024367;28;19923;-85
2023/09/30 11:13:22;;;;;;;;;;;;;;;30.47;nan;101454.41;5049390;28;20298;-85
2023/09/30 11:15:59;;;;;;;;;;;;;;;30.38;nan;101456.00;5034997;28;20430;-84
2023/09/30 11:18:24;;;;;;;;;;;;;;;30.69;nan;101463.28;5024686;28;19913;-85
2023/09/30 11:20:49;;;;;;;;;;;;;;;31.02;nan;101455.84;5023569;28;19970;-84
2023/09/30 11:23:15;;;;;;;;;;;;;;;29.83;nan;101458.78;5035613;28;19913;-85
2023/09/30 11:25:41;;;;;;;;;;;;;;;27.96;nan;101451.28;5038512;28;19921;-85
2023/09/30 11:28:06;;;;;;;;;;;;;;;;;;5040493;28;19978;-86
2023/09/30 11:30:31;;;;;;;;;;;;;;;25.89;nan;101440.78;5028867;28;19913;-84
2023/09/30 11:33:00;;;;;;;;;;;;;;;25.12;nan;101440.47;5026163;28;19925;-86
2023/09/30 11:35:25;;;;;;;;;;;;;;;24.88;nan;101444.91;5053808;28;20335;-86
2023/09/30 11:37:51;;;;;;;;;;;;;;;25.18;nan;101453.97;5039222;28;19925;-86
2023/09/30 11:40:23;;;;;;;;;;;;;;;25.43;nan;101453.03;5023542;28;19920;-85
2023/09/30 11:43:07;;;;;;;;;;;;;;;25.73;nan;101447.63;5032749;28;19923;-84
2023/09/30 11:45:33;;;;;;;;;;;;;;;25.95;nan;101447.97;5045782;28;19912;-84
2023/09/30 11:47:59;;;;;;;;;;;;;;;25.58;nan;101445.34;5035739;28;20293;-86
2023/09/30 11:50:24;;;;;;;;;;;;;;;25.11;nan;101444.25;5026939;28;20003;-86
2023/09/30 11:52:49;;;;;;;;;;;;;;;24.82;nan;101443.94;5033972;28;20012;-86
2023/09/30 11:55:16;;;;;;;;;;;;;;;24.72;nan;101444.47;5040848;28;19952;-84
2023/09/30 11:57:42;;;;;;;;;;;;;;;24.64;nan;101438.50;5048573;28;20352;-84
2023/09/30 12:00:13;;;;;;;;;;;;;;;24.40;nan;101419.34;5052369;28;19948;-83
2023/09/30 12:02:40;;;;;;;;;;;;;;;24.09;nan;101431.03;5036116;28;19959;-84
2023/09/30 12:05:11;;;;;;;;;;;;;;;;;;5057965;28;19916;-83
2023/09/30 12:07:36;;;;;;;;;;;;;;;23.78;nan;101419.19;5035884;28;19913;-86
2023/09/30 12:10:01;;;;;;;;;;;;;;;23.98;nan;101423.63;5027042;28;19928;-86
2023/09/30 12:12:26;;;;;;;;;;;;;;;24.04;nan;101429.00;5032213;28;19966;-87
2023/09/30 12:14:53;;;;;;;;;;;;;;;;;;5049229;28;20398;-86
2023/09/30 12:17:18;;;;;;;;;;;;;;;23.71;nan;101419.19;5027079;28;20317;-85
2023/09/30 12:19:43;;;;;;;;;;;;;;;23.52;nan;101420.97;5047156;28;19917;-86
2023/09/30 12:22:09;;;;;;;;;;;;;;;23.52;nan;101425.53;5048865;28;19917;-87
2023/09/30 12:24:34;;;;;;;;;;;;;;;23.48;nan;101425.16;5052749;28;20340;-86
2023/09/30 12:27:00;;;;;;;;;;;;;;;23.11;nan;101407.88;5039839;28;19924;-85
2023/09/30 12:29:25;;;;;;;;;;;;;;;22.88;nan;101398.41;5051831;28;19917;-84
2023/09/30 12:31:52;;;;;;;;;;;;;;;22.76;nan;101383.88;5038020;28;19954;-85
2023/09/30 12:34:17;;;;;;;;;;;;;;;22.58;nan;101389.94;5034830;28;20008;-85
2023/09/30 12:36:43;;;;;;;;;;;;;;;22.46;nan;101388.94;5054735;28;19944;-85
2023/09/30 12:39:12;;;;;;;;;;;;;;;22.14;nan;101380.63;5036081;28;20267;-85
2023/09/30 12:41:39;;;;;;;;;;;;;;;22.04;nan;101374.81;5055843;28;20278;-84
2023/09/30 12:44:04;;;;;;;;;;;;;;;21.90;nan;101368.59;5034666;28;19921;-84
2023/09/30 12:46:30;;;;;;;;;;;;;;;21.84;nan;101364.88;5055644;28;19924;-85
2023/09/30 12:48:55;;;;;;;;;;;;;;;21.82;nan;101366.13;5055153;28;20529;-84
2023/09/30 12:51:20;;;;;;;;;;;;;;;21.80;nan;101366.31;5036129;28;19917;-85
2023/09/30 12:53:46;;;;;;;;;;;;;;;21.77;nan;101369.44;5038013;28;19950;-84
2023/09/30 12:56:11;;;;;;;;;;;;;;;21.72;nan;101361.16;5058849;28;19924;-86
2023/09/30 12:58:38;;;;;;;;;;;;;;;21.67;nan;101352.03;5041389;28;20297;-85
2023/09/30 13:01:03;;;;;;;;;;;;;;;21.65;nan;101354.91;5057911;28;19917;-85
2023/09/30 13:03:28;;;;;;;;;;;;;;;21.64;nan;101342.47;5040586;28;19958;-84
2023/09/30 13:05:54;;;;;;;;;;;;;;;21.69;nan;101355.31;5058157;28;19923;-83
2023/09/30 13:08:19;;;;;;;;;;;;;;;21.73;nan;101352.03;5038930;28;19916;-84
2023/09/30 13:10:45;;;;;;;;;;;;;;;21.61;nan;101365.25;5039519;28;19920;-83
2023/09/30 13:13:10;;;;;;;;;;;;;;;21.50;nan;101362.34;5054060;28;19928;-84
2023/09/30 13:15:37;;;;;;;;;;;;;;;21.48;nan;101359.88;5035850;28;19921;-85
2023/09/30 13:18:03;;;;;;;;;;;;;;;21.40;nan;101360.03;5048467;28;19923;-84
2023/09/30 13:20:29;;;;;;;;;;;;;;;21.33;nan;101362.69;5049143;28;19917;-84
2023/09/30 13:22:54;;;;;;;;;;;;;;;21.34;nan;101358.13;5037937;28;19924;-85
2023/09/30 13:25:19;;;;;;;;;;;;;;;;;;5053562;28;20396;-84
2023/09/30 13:27:45;;;;;;;;;;;;;;;21.34;nan;101342.00;5053980;28;19932;-84
2023/09/30 13:30:10;;;;;;;;;;;;;;;21.26;nan;101345.72;5052348;28;19923;-83
2023/09/30 13:32:36;;;;;;;;;;;;;;;21.19;nan;101326.03;5054459;28;19920;-84
2023/09/30 13:35:07;;;;;;;;;;;;;;;21.20;nan;101328.50;5036035;28;19924;-84
2023/09/30 13:37:33;;;;;;;;;;;;;;;21.16;nan;101334.47;5049216;28;19928;-84
2023/09/30 13:40:02;;;;;;;;;;;;;;;21.12;nan;101334.06;5036290;28;19912;-84
2023/09/30 13:42:28;;;;;;;;;;;;;;;21.21;nan;101338.25;5034753;28;20007;-84
2023/09/30 13:44:53;;;;;;;;;;;;;;;21.34;nan;101342.81;5041370;28;19932;-84
2023/09/30 13:47:18;;;;;;;;;;;;;;;21.29;nan;101328.31;5039725;28;19913;-84
2023/09/30 13:49:46;;;;;;;;;;;;;;;21.34;nan;101324.00;5040680;28;19916;-84
2023/09/30 13:52:11;;;;;;;;;;;;;;;21.45;nan;101316.38;5071569;28;19970;-84
2023/09/30 13:54:36;;;;;;;;;;;;;;;21.44;nan;101326.31;5065993;28;19916;-86